NKS2329 KSAV-KMIA
Flight info
| Callsign | NKS2329 |
|---|---|
| Flight time | 1h 14m |
| Altitude | 37000 |
| Route | GIPPL WOPNR NOOMN DEBRL CSTAL3 |
| Aircraft | A21N/M-SDE2E3FGHIRWXY/LB1 |
Departure
| Time | 2026-04-21 00:08 |
|---|---|
| Airport | Savannah Hilton Head International Airport (KSAV) |
Arrival
| Time | 2026-04-21 01:22 |
|---|---|
| Airport | Miami International Airport (KMIA) |
| Time | Latitude | Longitude | Altitude | Speed | Heading |
|---|---|---|---|---|---|
| 2026-04-20 23:35 | 32.13577 | -81.20585 | 44 ft | 0 kts | 270° |
| 2026-04-21 00:02 | 32.13580 | -81.20570 | 42 ft | 3 kts | 236° |
| 2026-04-21 00:02 | 32.13590 | -81.20552 | 45 ft | 3 kts | 236° |
| 2026-04-21 00:02 | 32.13597 | -81.20540 | 41 ft | 0 kts | 213° |
| 2026-04-21 00:04 | 32.13595 | -81.20540 | 42 ft | 0 kts | 203° |
| 2026-04-21 00:04 | 32.13594 | -81.20540 | 42 ft | 1 kts | 188° |
| 2026-04-21 00:05 | 32.13580 | -81.20525 | 42 ft | 1 kts | 116° |
| 2026-04-21 00:05 | 32.13579 | -81.20521 | 44 ft | 2 kts | 107° |
| 2026-04-21 00:05 | 32.13575 | -81.20483 | 49 ft | 10 kts | 98° |
| 2026-04-21 00:05 | 32.13572 | -81.20417 | 51 ft | 5 kts | 92° |
| 2026-04-21 00:06 | 32.13570 | -81.20356 | 54 ft | 8 kts | 92° |
| 2026-04-21 00:06 | 32.13570 | -81.20343 | 55 ft | 6 kts | 90° |
| 2026-04-21 00:06 | 32.13570 | -81.20318 | 56 ft | 12 kts | 92° |
| 2026-04-21 00:06 | 32.13571 | -81.20189 | 63 ft | 14 kts | 89° |
| 2026-04-21 00:07 | 32.13573 | -81.20097 | 66 ft | 10 kts | 90° |
| 2026-04-21 00:07 | 32.13540 | -81.20032 | 64 ft | 12 kts | 152° |
| 2026-04-21 00:07 | 32.13446 | -81.20013 | 66 ft | 15 kts | 181° |
| 2026-04-21 00:07 | 32.13112 | -81.20014 | 59 ft | 84 kts | 179° |
| 2026-04-21 00:08 | 32.12262 | -81.20006 | 53 ft | 157 kts | 179° |
| 2026-04-21 00:08 | 32.11124 | -81.19993 | 689 ft | 162 kts | 178° |
| 2026-04-21 00:08 | 32.09994 | -81.19991 | 1577 ft | 164 kts | 179° |
| 2026-04-21 00:08 | 32.08827 | -81.19997 | 2356 ft | 172 kts | 181° |
| 2026-04-21 00:09 | 32.07585 | -81.20023 | 2975 ft | 186 kts | 183° |
| 2026-04-21 00:09 | 32.06218 | -81.20092 | 3385 ft | 207 kts | 185° |
| 2026-04-21 00:09 | 32.04706 | -81.20225 | 3742 ft | 230 kts | 187° |
| 2026-04-21 00:09 | 32.03028 | -81.20449 | 4081 ft | 255 kts | 189° |
| 2026-04-21 00:10 | 32.01178 | -81.20784 | 4375 ft | 283 kts | 192° |
| 2026-04-21 00:10 | 31.99144 | -81.21252 | 4579 ft | 313 kts | 194° |
| 2026-04-21 00:10 | 31.97175 | -81.21796 | 4650 ft | 340 kts | 196° |
| 2026-04-21 00:10 | 31.94783 | -81.22565 | 4579 ft | 372 kts | 198° |
| 2026-04-21 00:11 | 31.92242 | -81.23496 | 4936 ft | 377 kts | 199° |
| 2026-04-21 00:11 | 31.89834 | -81.24423 | 6298 ft | 359 kts | 200° |
| 2026-04-21 00:11 | 31.87611 | -81.25281 | 7113 ft | 313 kts | 200° |
| 2026-04-21 00:11 | 31.85622 | -81.26035 | 7704 ft | 294 kts | 201° |
| 2026-04-21 00:12 | 31.83667 | -81.26768 | 8260 ft | 295 kts | 201° |
| 2026-04-21 00:12 | 31.81699 | -81.27504 | 8813 ft | 298 kts | 201° |
| 2026-04-21 00:12 | 31.79712 | -81.28246 | 9388 ft | 301 kts | 202° |
| 2026-04-21 00:12 | 31.77705 | -81.28993 | 9962 ft | 304 kts | 201° |
| 2026-04-21 00:13 | 31.75655 | -81.29756 | 10529 ft | 314 kts | 202° |
| 2026-04-21 00:13 | 31.73540 | -81.30546 | 11140 ft | 323 kts | 202° |
| 2026-04-21 00:13 | 31.71374 | -81.31357 | 11813 ft | 330 kts | 202° |
| 2026-04-21 00:13 | 31.69165 | -81.32183 | 12535 ft | 336 kts | 202° |
| 2026-04-21 00:14 | 31.66926 | -81.33020 | 13289 ft | 339 kts | 202° |
| 2026-04-21 00:14 | 31.64664 | -81.33863 | 14087 ft | 342 kts | 202° |
| 2026-04-21 00:14 | 31.62391 | -81.34708 | 14800 ft | 344 kts | 202° |
| 2026-04-21 00:14 | 31.60097 | -81.35551 | 15500 ft | 348 kts | 200° |
| 2026-04-21 00:15 | 31.57654 | -81.35836 | 15850 ft | 373 kts | 176° |
| 2026-04-21 00:15 | 31.55109 | -81.34929 | 16115 ft | 396 kts | 153° |
| 2026-04-21 00:15 | 31.52927 | -81.32882 | 16454 ft | 410 kts | 129° |
| 2026-04-21 00:15 | 31.51482 | -81.29991 | 16966 ft | 413 kts | 107° |
| 2026-04-21 00:16 | 31.50984 | -81.26702 | 17528 ft | 411 kts | 85° |
| 2026-04-21 00:16 | 31.51269 | -81.23382 | 18077 ft | 413 kts | 79° |
| 2026-04-21 00:16 | 31.51142 | -81.19975 | 18626 ft | 426 kts | 100° |
| 2026-04-21 00:16 | 31.50034 | -81.16730 | 19113 ft | 435 kts | 121° |
| 2026-04-21 00:17 | 31.48073 | -81.14026 | 19580 ft | 439 kts | 141° |
| 2026-04-21 00:17 | 31.45476 | -81.12178 | 20064 ft | 437 kts | 162° |
| 2026-04-21 00:17 | 31.42537 | -81.11386 | 20537 ft | 431 kts | 182° |
| 2026-04-21 00:17 | 31.39600 | -81.11725 | 21022 ft | 420 kts | 202° |
| 2026-04-21 00:18 | 31.36997 | -81.13117 | 21527 ft | 406 kts | 222° |
| 2026-04-21 00:18 | 31.34782 | -81.15131 | 22048 ft | 406 kts | 223° |
| 2026-04-21 00:18 | 31.32291 | -81.16801 | 22561 ft | 419 kts | 211° |
| 2026-04-21 00:18 | 31.29494 | -81.17924 | 23039 ft | 433 kts | 198° |
| 2026-04-21 00:19 | 31.26464 | -81.18104 | 23492 ft | 452 kts | 179° |
| 2026-04-21 00:19 | 31.23363 | -81.17241 | 23925 ft | 465 kts | 165° |
| 2026-04-21 00:19 | 31.20307 | -81.15933 | 24259 ft | 468 kts | 166° |
| 2026-04-21 00:19 | 31.17194 | -81.14834 | 24648 ft | 467 kts | 172° |
| 2026-04-21 00:20 | 31.14029 | -81.13991 | 25025 ft | 467 kts | 175° |
| 2026-04-21 00:20 | 31.10828 | -81.13312 | 25389 ft | 467 kts | 178° |
| 2026-04-21 00:20 | 31.07604 | -81.12775 | 25763 ft | 467 kts | 180° |
| 2026-04-21 00:20 | 31.04368 | -81.12332 | 26118 ft | 468 kts | 181° |
| 2026-04-21 00:21 | 31.01121 | -81.11940 | 26463 ft | 470 kts | 182° |
| 2026-04-21 00:21 | 30.97861 | -81.11569 | 26804 ft | 471 kts | 183° |
| 2026-04-21 00:21 | 30.94584 | -81.11199 | 27124 ft | 473 kts | 183° |
| 2026-04-21 00:21 | 30.91299 | -81.10824 | 27427 ft | 475 kts | 183° |
| 2026-04-21 00:22 | 30.88049 | -81.10445 | 27759 ft | 476 kts | 183° |
| 2026-04-21 00:22 | 30.84742 | -81.10052 | 28027 ft | 478 kts | 183° |
| 2026-04-21 00:22 | 30.81426 | -81.09643 | 28285 ft | 480 kts | 182° |
| 2026-04-21 00:22 | 30.78094 | -81.09222 | 28551 ft | 482 kts | 183° |
| 2026-04-21 00:23 | 30.74752 | -81.08802 | 28819 ft | 484 kts | 183° |
| 2026-04-21 00:23 | 30.71401 | -81.08385 | 29089 ft | 485 kts | 183° |
| 2026-04-21 00:23 | 30.68053 | -81.07974 | 29454 ft | 483 kts | 184° |
| 2026-04-21 00:23 | 30.64707 | -81.07606 | 29790 ft | 478 kts | 187° |
| 2026-04-21 00:24 | 30.61439 | -81.07669 | 30166 ft | 465 kts | 195° |
| 2026-04-21 00:24 | 30.58764 | -81.07958 | 30480 ft | 461 kts | 197° |
| 2026-04-21 00:24 | 30.56883 | -81.08204 | 30680 ft | 459 kts | 198° |
| 2026-04-21 00:24 | 30.53733 | -81.08667 | 31052 ft | 455 kts | 198° |
| 2026-04-21 00:25 | 30.50606 | -81.09160 | 31425 ft | 451 kts | 199° |
| 2026-04-21 00:25 | 30.47504 | -81.09659 | 31789 ft | 448 kts | 199° |
| 2026-04-21 00:25 | 30.44419 | -81.10154 | 32136 ft | 446 kts | 199° |
| 2026-04-21 00:25 | 30.41354 | -81.10640 | 32454 ft | 444 kts | 200° |
| 2026-04-21 00:26 | 30.38291 | -81.11120 | 32779 ft | 442 kts | 200° |
| 2026-04-21 00:26 | 30.35245 | -81.11591 | 33085 ft | 440 kts | 200° |
| 2026-04-21 00:26 | 30.32213 | -81.12057 | 33381 ft | 438 kts | 200° |
| 2026-04-21 00:26 | 30.29241 | -81.12512 | 33659 ft | 436 kts | 200° |
| 2026-04-21 00:27 | 30.26236 | -81.12971 | 33938 ft | 434 kts | 200° |
| 2026-04-21 00:27 | 30.23247 | -81.13427 | 34212 ft | 432 kts | 200° |
| 2026-04-21 00:27 | 30.20255 | -81.13884 | 34432 ft | 431 kts | 201° |
| 2026-04-21 00:27 | 30.17285 | -81.14339 | 34573 ft | 431 kts | 201° |
| 2026-04-21 00:28 | 30.14302 | -81.14798 | 34674 ft | 432 kts | 201° |
| 2026-04-21 00:28 | 30.11333 | -81.15255 | 34795 ft | 433 kts | 201° |
| 2026-04-21 00:28 | 30.08331 | -81.15714 | 34894 ft | 433 kts | 201° |
| 2026-04-21 00:28 | 30.05353 | -81.16166 | 35113 ft | 431 kts | 201° |
| 2026-04-21 00:29 | 30.02381 | -81.16617 | 35230 ft | 431 kts | 201° |
| 2026-04-21 00:29 | 29.96460 | -81.17520 | 35410 ft | 433 kts | 201° |
| 2026-04-21 00:30 | 29.90484 | -81.18444 | 35565 ft | 434 kts | 202° |
| 2026-04-21 00:30 | 29.84493 | -81.19439 | 35691 ft | 436 kts | 202° |
| 2026-04-21 00:31 | 29.78458 | -81.20368 | 35815 ft | 439 kts | 199° |
| 2026-04-21 00:31 | 29.72335 | -81.21084 | 35925 ft | 450 kts | 193° |
| 2026-04-21 00:31 | 29.69153 | -81.20930 | 35969 ft | 466 kts | 185° |
| 2026-04-21 00:32 | 29.65921 | -81.20408 | 36003 ft | 472 kts | 182° |
| 2026-04-21 00:32 | 29.59421 | -81.19162 | 36110 ft | 474 kts | 182° |
| 2026-04-21 00:33 | 29.52898 | -81.17886 | 36165 ft | 476 kts | 181° |
| 2026-04-21 00:33 | 29.46356 | -81.16610 | 36262 ft | 477 kts | 181° |
| 2026-04-21 00:34 | 29.39789 | -81.15330 | 36372 ft | 479 kts | 181° |
| 2026-04-21 00:34 | 29.33260 | -81.14059 | 36455 ft | 480 kts | 181° |
| 2026-04-21 00:35 | 29.26672 | -81.12255 | 36533 ft | 494 kts | 172° |
| 2026-04-21 00:35 | 29.20114 | -81.09796 | 36614 ft | 496 kts | 171° |
| 2026-04-21 00:36 | 29.13563 | -81.07323 | 36703 ft | 497 kts | 171° |
| 2026-04-21 00:36 | 29.06981 | -81.04854 | 36759 ft | 498 kts | 171° |
| 2026-04-21 00:37 | 29.00378 | -81.02384 | 36818 ft | 500 kts | 171° |
| 2026-04-21 00:37 | 28.93760 | -80.99912 | 36850 ft | 501 kts | 171° |
| 2026-04-21 00:38 | 28.87144 | -80.97444 | 36981 ft | 500 kts | 171° |
| 2026-04-21 00:38 | 28.80514 | -80.94978 | 37004 ft | 502 kts | 171° |
| 2026-04-21 00:39 | 28.73900 | -80.92339 | 37053 ft | 508 kts | 167° |
| 2026-04-21 00:39 | 28.67356 | -80.89222 | 37134 ft | 511 kts | 166° |
| 2026-04-21 00:40 | 28.60799 | -80.86081 | 37215 ft | 510 kts | 166° |
| 2026-04-21 00:40 | 28.54252 | -80.82960 | 37231 ft | 510 kts | 166° |
| 2026-04-21 00:41 | 28.47702 | -80.79845 | 37229 ft | 511 kts | 166° |
| 2026-04-21 00:41 | 28.41137 | -80.76729 | 37227 ft | 511 kts | 166° |
| 2026-04-21 00:42 | 28.34576 | -80.73619 | 37176 ft | 511 kts | 166° |
| 2026-04-21 00:42 | 28.28071 | -80.70539 | 37203 ft | 509 kts | 166° |
| 2026-04-21 00:43 | 28.21524 | -80.67510 | 37202 ft | 503 kts | 171° |
| 2026-04-21 00:43 | 28.14853 | -80.65346 | 37200 ft | 497 kts | 174° |
| 2026-04-21 00:44 | 28.08164 | -80.63354 | 37201 ft | 497 kts | 174° |
| 2026-04-21 00:44 | 28.01478 | -80.61357 | 37188 ft | 497 kts | 174° |
| 2026-04-21 00:45 | 27.91473 | -80.58365 | 37190 ft | 495 kts | 174° |
| 2026-04-21 00:45 | 27.84809 | -80.56375 | 37186 ft | 495 kts | 174° |
| 2026-04-21 00:46 | 27.79280 | -80.54725 | 37188 ft | 495 kts | 174° |
| 2026-04-21 00:46 | 27.72614 | -80.52738 | 37171 ft | 494 kts | 174° |
| 2026-04-21 00:47 | 27.65972 | -80.50739 | 37190 ft | 495 kts | 172° |
| 2026-04-21 00:47 | 27.59409 | -80.48214 | 37192 ft | 499 kts | 169° |
| 2026-04-21 00:48 | 27.52866 | -80.45595 | 37183 ft | 499 kts | 169° |
| 2026-04-21 00:48 | 27.46318 | -80.42991 | 37183 ft | 499 kts | 169° |
| 2026-04-21 00:49 | 27.43056 | -80.41697 | 36986 ft | 495 kts | 169° |
| 2026-04-21 00:49 | 27.39816 | -80.40413 | 36352 ft | 493 kts | 169° |
| 2026-04-21 00:49 | 27.36619 | -80.39151 | 35634 ft | 495 kts | 169° |
| 2026-04-21 00:49 | 27.33420 | -80.37883 | 35074 ft | 479 kts | 169° |
| 2026-04-21 00:50 | 27.32714 | -80.37602 | 34918 ft | 476 kts | 169° |
| 2026-04-21 00:50 | 27.30948 | -80.36900 | 34404 ft | 470 kts | 169° |
| 2026-04-21 00:50 | 27.27855 | -80.35681 | 32934 ft | 472 kts | 168° |
| 2026-04-21 00:50 | 27.24735 | -80.34459 | 31404 ft | 475 kts | 168° |
| 2026-04-21 00:51 | 27.21616 | -80.33235 | 29932 ft | 475 kts | 168° |
| 2026-04-21 00:51 | 27.18539 | -80.32030 | 29189 ft | 456 kts | 168° |
| 2026-04-21 00:51 | 27.15611 | -80.30881 | 28915 ft | 440 kts | 168° |
| 2026-04-21 00:51 | 27.12992 | -80.29864 | 28648 ft | 438 kts | 169° |
| 2026-04-21 00:52 | 27.10103 | -80.28749 | 28396 ft | 438 kts | 168° |
| 2026-04-21 00:52 | 27.07273 | -80.27654 | 28132 ft | 435 kts | 168° |
| 2026-04-21 00:52 | 27.04441 | -80.26554 | 27698 ft | 427 kts | 168° |
| 2026-04-21 00:52 | 27.01648 | -80.25471 | 27148 ft | 423 kts | 168° |
| 2026-04-21 00:53 | 26.98879 | -80.24400 | 26523 ft | 420 kts | 168° |
| 2026-04-21 00:53 | 26.96116 | -80.23331 | 25920 ft | 417 kts | 168° |
| 2026-04-21 00:53 | 26.93386 | -80.22275 | 25328 ft | 414 kts | 168° |
| 2026-04-21 00:53 | 26.90670 | -80.21225 | 24744 ft | 411 kts | 167° |
| 2026-04-21 00:54 | 26.87968 | -80.20180 | 24158 ft | 409 kts | 167° |
| 2026-04-21 00:54 | 26.85287 | -80.19159 | 23520 ft | 406 kts | 168° |
| 2026-04-21 00:54 | 26.82615 | -80.18165 | 22829 ft | 403 kts | 167° |
| 2026-04-21 00:54 | 26.79971 | -80.17184 | 22251 ft | 397 kts | 167° |
| 2026-04-21 00:55 | 26.77345 | -80.16550 | 21884 ft | 374 kts | 185° |
| 2026-04-21 00:55 | 26.74888 | -80.17012 | 21580 ft | 348 kts | 209° |
| 2026-04-21 00:55 | 26.72896 | -80.18444 | 21392 ft | 336 kts | 226° |
| 2026-04-21 00:55 | 26.71177 | -80.20162 | 21034 ft | 328 kts | 228° |
| 2026-04-21 00:56 | 26.69504 | -80.21895 | 20415 ft | 328 kts | 228° |
| 2026-04-21 00:56 | 26.67824 | -80.23646 | 20069 ft | 336 kts | 228° |
| 2026-04-21 00:56 | 26.66096 | -80.25450 | 19836 ft | 342 kts | 228° |
| 2026-04-21 00:56 | 26.64352 | -80.27267 | 19595 ft | 343 kts | 228° |
| 2026-04-21 00:57 | 26.62606 | -80.29084 | 19368 ft | 342 kts | 228° |
| 2026-04-21 00:57 | 26.60864 | -80.30894 | 19155 ft | 342 kts | 228° |
| 2026-04-21 00:57 | 26.59121 | -80.32706 | 18920 ft | 342 kts | 228° |
| 2026-04-21 00:57 | 26.57350 | -80.34469 | 18682 ft | 342 kts | 221° |
| 2026-04-21 00:58 | 26.55207 | -80.35513 | 18449 ft | 344 kts | 195° |
| 2026-04-21 00:58 | 26.52821 | -80.35596 | 18183 ft | 339 kts | 185° |
| 2026-04-21 00:58 | 26.50530 | -80.35711 | 17933 ft | 322 kts | 192° |
| 2026-04-21 00:58 | 26.48323 | -80.35876 | 17696 ft | 314 kts | 187° |
| 2026-04-21 00:59 | 26.46161 | -80.35605 | 17455 ft | 312 kts | 169° |
| 2026-04-21 00:59 | 26.44200 | -80.34610 | 17214 ft | 310 kts | 147° |
| 2026-04-21 00:59 | 26.42736 | -80.32883 | 16977 ft | 305 kts | 120° |
| 2026-04-21 00:59 | 26.42045 | -80.30703 | 16746 ft | 294 kts | 94° |
| 2026-04-21 01:00 | 26.42181 | -80.28494 | 16508 ft | 280 kts | 69° |
| 2026-04-21 01:00 | 26.42986 | -80.26583 | 16289 ft | 268 kts | 49° |
| 2026-04-21 01:00 | 26.44268 | -80.25145 | 16072 ft | 258 kts | 33° |
| 2026-04-21 01:00 | 26.45658 | -80.23879 | 15857 ft | 258 kts | 33° |
| 2026-04-21 01:01 | 26.47050 | -80.22616 | 15641 ft | 258 kts | 34° |
| 2026-04-21 01:01 | 26.48416 | -80.21377 | 15429 ft | 256 kts | 33° |
| 2026-04-21 01:01 | 26.49819 | -80.20160 | 15221 ft | 254 kts | 33° |
| 2026-04-21 01:01 | 26.51201 | -80.18942 | 15012 ft | 253 kts | 34° |
| 2026-04-21 01:02 | 26.52564 | -80.17713 | 14803 ft | 251 kts | 34° |
| 2026-04-21 01:02 | 26.53912 | -80.16480 | 14595 ft | 250 kts | 35° |
| 2026-04-21 01:02 | 26.55106 | -80.15052 | 14394 ft | 255 kts | 52° |
| 2026-04-21 01:02 | 26.55808 | -80.13218 | 14175 ft | 261 kts | 75° |
| 2026-04-21 01:03 | 26.55690 | -80.11203 | 13957 ft | 266 kts | 111° |
| 2026-04-21 01:03 | 26.54561 | -80.09598 | 13713 ft | 266 kts | 149° |
| 2026-04-21 01:03 | 26.52857 | -80.08861 | 13502 ft | 264 kts | 169° |
| 2026-04-21 01:03 | 26.51055 | -80.08458 | 13274 ft | 265 kts | 171° |
| 2026-04-21 01:04 | 26.49246 | -80.08082 | 13051 ft | 263 kts | 171° |
| 2026-04-21 01:04 | 26.47465 | -80.07689 | 12812 ft | 260 kts | 171° |
| 2026-04-21 01:04 | 26.45686 | -80.07302 | 12589 ft | 259 kts | 172° |
| 2026-04-21 01:04 | 26.43929 | -80.06938 | 12360 ft | 260 kts | 172° |
| 2026-04-21 01:05 | 26.42151 | -80.06570 | 12143 ft | 259 kts | 171° |
| 2026-04-21 01:05 | 26.40392 | -80.06200 | 11937 ft | 256 kts | 170° |
| 2026-04-21 01:05 | 26.38664 | -80.05773 | 11707 ft | 253 kts | 169° |
| 2026-04-21 01:05 | 26.36955 | -80.05315 | 11483 ft | 252 kts | 168° |
| 2026-04-21 01:06 | 26.35254 | -80.04852 | 11278 ft | 251 kts | 168° |
| 2026-04-21 01:06 | 26.33554 | -80.04387 | 11056 ft | 251 kts | 169° |
| 2026-04-21 01:06 | 26.31852 | -80.03922 | 10843 ft | 251 kts | 168° |
| 2026-04-21 01:06 | 26.30166 | -80.03460 | 10619 ft | 248 kts | 168° |
| 2026-04-21 01:07 | 26.28495 | -80.03003 | 10421 ft | 245 kts | 168° |
| 2026-04-21 01:07 | 26.26850 | -80.02558 | 10193 ft | 242 kts | 170° |
| 2026-04-21 01:07 | 26.25190 | -80.02355 | 9986 ft | 239 kts | 185° |
| 2026-04-21 01:07 | 26.23546 | -80.02574 | 9751 ft | 237 kts | 193° |
| 2026-04-21 01:08 | 26.21926 | -80.02932 | 9523 ft | 237 kts | 194° |
| 2026-04-21 01:08 | 26.20311 | -80.03314 | 9282 ft | 238 kts | 192° |
| 2026-04-21 01:08 | 26.18708 | -80.03690 | 9059 ft | 238 kts | 192° |
| 2026-04-21 01:08 | 26.17082 | -80.04068 | 8833 ft | 239 kts | 192° |
| 2026-04-21 01:09 | 26.15448 | -80.04445 | 8606 ft | 241 kts | 191° |
| 2026-04-21 01:09 | 26.13808 | -80.04821 | 8368 ft | 240 kts | 191° |
| 2026-04-21 01:09 | 26.12176 | -80.05195 | 8156 ft | 238 kts | 191° |
| 2026-04-21 01:09 | 26.10563 | -80.05564 | 7926 ft | 237 kts | 191° |
| 2026-04-21 01:10 | 26.08945 | -80.05934 | 7711 ft | 237 kts | 190° |
| 2026-04-21 01:10 | 26.07327 | -80.06310 | 7500 ft | 238 kts | 191° |
| 2026-04-21 01:10 | 26.05717 | -80.06713 | 7274 ft | 237 kts | 192° |
| 2026-04-21 01:10 | 26.04120 | -80.07124 | 7067 ft | 234 kts | 192° |
| 2026-04-21 01:11 | 26.02536 | -80.07536 | 6851 ft | 235 kts | 192° |
| 2026-04-21 01:11 | 26.00943 | -80.07950 | 6641 ft | 236 kts | 191° |
| 2026-04-21 01:11 | 25.99342 | -80.08365 | 6434 ft | 236 kts | 192° |
| 2026-04-21 01:11 | 25.97744 | -80.08780 | 6204 ft | 236 kts | 192° |
| 2026-04-21 01:12 | 25.96152 | -80.09193 | 5981 ft | 234 kts | 192° |
| 2026-04-21 01:12 | 25.94565 | -80.09606 | 5752 ft | 235 kts | 191° |
| 2026-04-21 01:12 | 25.92989 | -80.10129 | 5499 ft | 239 kts | 202° |
| 2026-04-21 01:12 | 25.91589 | -80.11106 | 5263 ft | 237 kts | 223° |
| 2026-04-21 01:13 | 25.90453 | -80.12369 | 5062 ft | 230 kts | 229° |
| 2026-04-21 01:13 | 25.89390 | -80.13686 | 5016 ft | 230 kts | 230° |
| 2026-04-21 01:13 | 25.88452 | -80.15115 | 5013 ft | 229 kts | 245° |
| 2026-04-21 01:13 | 25.87943 | -80.16763 | 5019 ft | 225 kts | 264° |
| 2026-04-21 01:14 | 25.87817 | -80.18483 | 5022 ft | 223 kts | 271° |
| 2026-04-21 01:14 | 25.87774 | -80.20214 | 5013 ft | 225 kts | 271° |
| 2026-04-21 01:14 | 25.87737 | -80.21951 | 5024 ft | 226 kts | 272° |
| 2026-04-21 01:14 | 25.87694 | -80.23696 | 5019 ft | 225 kts | 271° |
| 2026-04-21 01:15 | 25.87646 | -80.25423 | 5013 ft | 224 kts | 271° |
| 2026-04-21 01:15 | 25.87594 | -80.27156 | 5021 ft | 225 kts | 271° |
| 2026-04-21 01:15 | 25.87541 | -80.28900 | 5020 ft | 226 kts | 272° |
| 2026-04-21 01:15 | 25.87490 | -80.30577 | 5023 ft | 226 kts | 271° |
| 2026-04-21 01:16 | 25.87434 | -80.32320 | 5018 ft | 226 kts | 271° |
| 2026-04-21 01:16 | 25.87378 | -80.34066 | 5019 ft | 227 kts | 271° |
| 2026-04-21 01:16 | 25.87322 | -80.35820 | 5017 ft | 227 kts | 271° |
| 2026-04-21 01:16 | 25.87266 | -80.37517 | 5020 ft | 227 kts | 271° |
| 2026-04-21 01:17 | 25.87184 | -80.39265 | 5017 ft | 226 kts | 270° |
| 2026-04-21 01:17 | 25.87059 | -80.40981 | 5007 ft | 228 kts | 261° |
| 2026-04-21 01:17 | 25.86279 | -80.42481 | 5005 ft | 229 kts | 218° |
| 2026-04-21 01:17 | 25.84883 | -80.43296 | 5019 ft | 229 kts | 201° |
| 2026-04-21 01:18 | 25.83424 | -80.44057 | 5050 ft | 233 kts | 207° |
| 2026-04-21 01:18 | 25.82007 | -80.44906 | 4822 ft | 226 kts | 199° |
| 2026-04-21 01:18 | 25.80552 | -80.44956 | 4620 ft | 200 kts | 153° |
| 2026-04-21 01:18 | 25.79644 | -80.44017 | 4402 ft | 169 kts | 105° |
| 2026-04-21 01:19 | 25.79519 | -80.42833 | 4247 ft | 144 kts | 81° |
| 2026-04-21 01:19 | 25.79589 | -80.41790 | 4026 ft | 131 kts | 81° |
| 2026-04-21 01:19 | 25.79637 | -80.40780 | 3531 ft | 137 kts | 81° |
| 2026-04-21 01:19 | 25.79689 | -80.39665 | 2830 ft | 152 kts | 81° |
| 2026-04-21 01:20 | 25.79734 | -80.38446 | 2139 ft | 160 kts | 83° |
| 2026-04-21 01:20 | 25.79744 | -80.37256 | 1773 ft | 147 kts | 81° |
| 2026-04-21 01:20 | 25.79806 | -80.36090 | 1356 ft | 153 kts | 81° |
| 2026-04-21 01:20 | 25.79886 | -80.34960 | 1018 ft | 140 kts | 81° |
| 2026-04-21 01:21 | 25.79907 | -80.33924 | 803 ft | 130 kts | 83° |
| 2026-04-21 01:21 | 25.79942 | -80.32943 | 578 ft | 130 kts | 81° |
| 2026-04-21 01:21 | 25.79997 | -80.31991 | 365 ft | 118 kts | 83° |
| 2026-04-21 01:21 | 25.80026 | -80.31071 | 189 ft | 120 kts | 83° |
| 2026-04-21 01:22 | 25.80070 | -80.30153 | 44 ft | 118 kts | 82° |
| 2026-04-21 01:22 | 25.80102 | -80.29350 | 21 ft | 83 kts | 87° |
| 2026-04-21 01:22 | 25.80124 | -80.28897 | 28 ft | 44 kts | 87° |
| 2026-04-21 01:22 | 25.80090 | -80.28721 | 24 ft | 8 kts | 177° |
| 2026-04-21 01:23 | 25.80045 | -80.28727 | 28 ft | 6 kts | 190° |
| 2026-04-21 01:23 | 25.79997 | -80.28734 | 27 ft | 8 kts | 182° |
| 2026-04-21 01:23 | 25.79952 | -80.28712 | 26 ft | 7 kts | 130° |
| 2026-04-21 01:23 | 25.79940 | -80.28651 | 27 ft | 10 kts | 89° |
| 2026-04-21 01:24 | 25.79944 | -80.28559 | 21 ft | 14 kts | 87° |
| 2026-04-21 01:24 | 25.79930 | -80.28444 | 20 ft | 16 kts | 131° |
| 2026-04-21 01:24 | 25.79863 | -80.28414 | 20 ft | 5 kts | 173° |
| 2026-04-21 01:24 | 25.79829 | -80.28412 | 21 ft | 3 kts | 178° |
| 2026-04-21 01:25 | 25.79827 | -80.28412 | 21 ft | 0 kts | 177° |